Time;durP1;ratioP1;P1;durP2;ratioP2;P2;SDS_P1;SDS_P2;PMS_P1;PMS_P2;Temp;Humidity;BMP_temperature;BMP_pressure;BME280_temperature;BME280_humidity;BME280_pressure;Samples;Min_cycle;Max_cycle;Signal;HPM_P1;HPM_P2
2022/03/07 00:01:25;;;;;;;19.63;12.53;;;;;;;-1.59;60.76;99091.91;5071696;28;20202;-57
2022/03/07 00:03:53;;;;;;;19.67;12.13;;;;;;;-1.66;60.38;99094.72;5071271;28;20191;-58
2022/03/07 00:06:19;;;;;;;22.17;13.37;;;;;;;-1.69;61.29;99094.84;5072300;28;20690;-58
2022/03/07 00:08:46;;;;;;;20.80;12.23;;;;;;;-1.69;61.37;99097.41;5072919;28;20190;-58
2022/03/07 00:11:13;;;;;;;20.17;12.90;;;;;;;-1.69;62.32;99094.84;5072213;28;20191;-58
2022/03/07 00:13:39;;;;;;;21.37;12.87;;;;;;;-1.79;62.47;99090.97;5054324;28;20824;-57
2022/03/07 00:16:07;;;;;;;24.00;12.53;;;;;;;-1.82;61.66;99094.50;5072187;28;20185;-57
2022/03/07 00:18:35;;;;;;;24.17;13.90;;;;;;;-1.81;62.39;99088.50;5072143;28;20196;-57
2022/03/07 00:21:03;;;;;;;20.10;13.13;;;;;;;-1.97;62.24;99090.81;5071773;28;20200;-58
2022/03/07 00:23:30;;;;;;;21.60;13.07;;;;;;;-1.93;62.66;99084.69;5072010;28;20698;-57
2022/03/07 00:25:57;;;;;;;21.63;12.93;;;;;;;-1.98;62.83;99086.59;5071925;28;20207;-57
2022/03/07 00:28:23;;;;;;;23.23;13.17;;;;;;;-1.96;62.25;99087.34;5072689;28;20268;-57
2022/03/07 00:30:50;;;;;;;22.03;12.63;;;;;;;-1.89;62.15;99095.63;5052894;28;20187;-58
2022/03/07 00:33:18;;;;;;;23.80;13.63;;;;;;;-1.96;63.09;99091.66;5071635;28;20182;-57
2022/03/07 00:35:46;;;;;;;22.77;13.93;;;;;;;-2.03;63.12;99092.78;5053788;28;20222;-60
2022/03/07 00:38:13;;;;;;;22.40;13.63;;;;;;;-2.01;63.37;99094.38;5072360;28;20218;-58
2022/03/07 00:40:40;;;;;;;23.10;13.33;;;;;;;-1.93;62.87;99096.66;5053468;28;20205;-58
2022/03/07 00:43:08;;;;;;;23.50;13.43;;;;;;;-1.86;62.76;99092.13;5053331;28;20194;-57
2022/03/07 00:45:35;;;;;;;24.93;13.30;;;;;;;-1.79;63.59;99093.53;5053616;28;20219;-58
2022/03/07 00:48:02;;;;;;;22.17;12.83;;;;;;;-1.83;63.55;99097.13;5071944;28;20316;-58
2022/03/07 00:50:30;;;;;;;23.07;13.87;;;;;;;-1.78;62.96;99100.31;5053808;28;20198;-57
2022/03/07 00:52:58;;;;;;;23.87;14.40;;;;;;;-1.76;63.04;99097.72;5053660;28;20678;-57
2022/03/07 00:55:26;;;;;;;24.10;13.33;;;;;;;-1.81;62.82;99096.19;5053311;28;20214;-58
2022/03/07 00:57:53;;;;;;;21.73;13.10;;;;;;;-1.82;63.57;99094.50;5054110;28;20304;-57
2022/03/07 01:00:20;;;;;;;24.07;13.77;;;;;;;-1.68;62.80;99093.94;5053442;28;20194;-57
2022/03/07 01:02:47;;;;;;;24.57;14.37;;;;;;;-1.67;63.17;99103.28;5051801;28;20192;-58
2022/03/07 01:05:13;;;;;;;21.00;12.67;;;;;;;-1.55;62.79;99104.50;5070927;28;20218;-58
2022/03/07 01:07:40;;;;;;;23.60;12.77;;;;;;;-1.76;63.14;99098.53;5071761;28;20194;-58
2022/03/07 01:10:09;;;;;;;20.43;12.53;;;;;;;-1.82;62.92;99104.75;5053051;28;20186;-58
2022/03/07 01:12:36;;;;;;;23.57;13.47;;;;;;;-1.66;62.76;99097.28;5053304;28;20194;-59
2022/03/07 01:15:04;;;;;;;20.70;12.53;;;;;;;-1.63;61.64;99097.16;5070876;28;20207;-59
2022/03/07 01:17:31;;;;;;;25.93;13.60;;;;;;;-1.63;62.62;99094.59;5053251;28;20200;-59
2022/03/07 01:19:59;;;;;;;18.67;12.50;;;;;;;-1.54;61.70;99101.06;5053696;28;20195;-59
2022/03/07 01:22:26;;;;;;;21.43;13.57;;;;;;;-1.67;61.97;99093.06;5051809;28;20198;-59
2022/03/07 01:24:53;;;;;;;22.93;13.50;;;;;;;-1.61;62.20;99097.09;5052849;28;20213;-59
2022/03/07 01:27:22;;;;;;;23.03;13.53;;;;;;;-1.77;63.03;99088.38;5071399;28;20178;-59
2022/03/07 01:29:48;;;;;;;26.30;13.93;;;;;;;-1.66;62.77;99084.47;5053198;28;20974;-58
2022/03/07 01:32:15;;;;;;;21.93;13.13;;;;;;;-1.71;62.31;99086.38;5052669;28;20192;-59
2022/03/07 01:34:42;;;;;;;22.60;15.70;;;;;;;-1.68;62.11;99091.38;5051505;28;20433;-59
2022/03/07 01:37:09;;;;;;;21.77;13.53;;;;;;;-1.64;62.42;99090.38;5053336;28;20199;-58
2022/03/07 01:39:36;;;;;;;21.23;13.30;;;;;;;-1.72;62.34;99089.84;5053094;28;20222;-59
2022/03/07 01:42:04;;;;;;;21.70;12.80;;;;;;;-1.64;62.04;99087.81;5051991;28;20203;-58
2022/03/07 01:44:32;;;;;;;22.07;13.10;;;;;;;-1.71;62.21;99083.00;5052370;28;20220;-58
2022/03/07 01:46:59;;;;;;;27.57;13.03;;;;;;;-1.79;62.83;99078.19;5070639;28;20180;-59
2022/03/07 01:49:26;;;;;;;20.90;13.23;;;;;;;-1.63;62.75;99069.00;5053265;28;20304;-59
2022/03/07 01:51:53;;;;;;;22.27;12.97;;;;;;;-1.67;62.32;99077.69;5052564;28;20265;-59
2022/03/07 01:54:22;;;;;;;23.80;13.37;;;;;;;-1.56;62.02;99072.13;5052204;28;20207;-59
2022/03/07 01:56:51;;;;;;;22.80;12.57;;;;;;;-1.64;62.21;99072.44;5070979;28;20281;-59
2022/03/07 01:59:19;;;;;;;22.07;12.40;;;;;;;-1.67;62.59;99071.75;5068813;22;20269;-59
2022/03/07 02:01:48;;;;;;;23.87;13.67;;;;;;;-1.49;62.16;99065.84;5091094;28;20185;-59
2022/03/07 02:04:16;;;;;;;21.20;12.43;;;;;;;-1.54;62.05;99064.41;5090652;28;20185;-59
2022/03/07 02:06:46;;;;;;;20.97;13.00;;;;;;;-1.39;61.72;99063.75;5093127;28;20234;-60
2022/03/07 02:09:13;;;;;;;21.23;12.90;;;;;;;-1.40;61.84;99072.34;5093387;28;20270;-59
2022/03/07 02:11:44;;;;;;;19.53;12.20;;;;;;;-1.32;61.20;99066.88;5092855;28;20223;-59
2022/03/07 02:14:15;;;;;;;21.33;13.20;;;;;;;-1.46;61.70;99075.16;5092800;28;20207;-59
2022/03/07 02:16:45;;;;;;;22.17;12.63;;;;;;;-1.55;62.27;99073.78;5093066;28;20281;-59
2022/03/07 02:19:14;;;;;;;22.47;12.97;;;;;;;-1.50;61.95;99071.06;5111474;28;20216;-59
2022/03/07 02:21:46;;;;;;;23.00;13.50;;;;;;;-1.54;61.84;99072.88;5092913;28;20185;-59
2022/03/07 02:24:26;;;;;;;24.87;12.87;;;;;;;-1.57;62.44;99062.78;5092754;28;20201;-59
2022/03/07 02:27:00;;;;;;;22.60;13.07;;;;;;;-1.60;63.22;99062.09;5092918;28;20193;-59
2022/03/07 02:29:28;;;;;;;21.53;12.87;;;;;;;-1.76;62.95;99057.59;5092856;28;20229;-59
2022/03/07 02:31:58;;;;;;;22.63;12.67;;;;;;;-1.79;63.08;99057.72;5092588;28;20193;-59
2022/03/07 02:34:27;;;;;;;20.93;13.40;;;;;;;-1.87;63.66;99059.75;5092395;28;20198;-60
2022/03/07 02:36:54;;;;;;;20.23;12.37;;;;;;;-1.97;64.15;99052.44;5092655;28;20189;-59
2022/03/07 02:39:22;;;;;;;19.73;12.50;;;;;;;-1.88;63.42;99058.06;5092534;28;20228;-60
2022/03/07 02:41:50;;;;;;;20.07;11.50;;;;;;;-1.95;64.24;99058.31;5110811;28;20577;-59
2022/03/07 02:44:18;;;;;;;22.60;13.70;;;;;;;-2.05;64.46;99051.09;5092289;28;20312;-59
2022/03/07 02:46:45;;;;;;;22.53;12.80;;;;;;;-2.17;64.95;99045.56;5092728;28;20193;-59
2022/03/07 02:49:12;;;;;;;21.00;12.77;;;;;;;-2.23;66.83;99049.19;5092855;28;20206;-60
2022/03/07 02:51:39;;;;;;;21.97;12.10;;;;;;;-2.42;66.77;99051.59;5092414;28;20219;-60
2022/03/07 02:54:06;;;;;;;20.20;11.83;;;;;;;-2.51;67.22;99044.28;5092192;28;20290;-59
2022/03/07 02:56:33;;;;;;;19.70;12.27;;;;;;;-2.43;67.54;99042.28;5096824;28;20552;-60
2022/03/07 02:59:02;;;;;;;24.43;13.33;;;;;;;-2.55;67.88;99046.13;5114900;28;20205;-59
2022/03/07 03:01:29;;;;;;;22.00;12.47;;;;;;;-2.66;68.35;99043.13;5115049;28;20181;-59
2022/03/07 03:03:55;;;;;;;23.08;14.32;;;;;;;-2.70;68.62;99049.25;5114104;28;20437;-60
2022/03/07 03:06:22;;;;;;;19.37;12.53;;;;;;;-2.78;68.48;99059.78;5115098;28;20181;-59
2022/03/07 03:08:49;;;;;;;22.57;12.83;;;;;;;-2.85;69.45;99055.75;5096656;28;20185;-59
2022/03/07 03:11:16;;;;;;;22.20;12.83;;;;;;;-2.85;69.69;99060.88;5114812;28;20201;-60
2022/03/07 03:13:43;;;;;;;25.63;12.33;;;;;;;-2.97;69.57;99057.88;5114505;28;20188;-59
2022/03/07 03:16:11;;;;;;;21.80;12.80;;;;;;;-2.99;69.85;99058.78;5114216;28;20234;-59
2022/03/07 03:18:37;;;;;;;22.27;12.30;;;;;;;-2.92;69.63;99055.13;5114519;28;20234;-60
2022/03/07 03:21:04;;;;;;;22.57;12.57;;;;;;;-2.98;69.92;99058.75;5111639;28;20217;-59
2022/03/07 03:23:31;;;;;;;21.33;12.37;;;;;;;-3.04;71.42;99056.41;5106958;28;20193;-60
2022/03/07 03:25:58;;;;;;;24.30;12.77;;;;;;;-3.11;71.33;99070.28;5104649;28;20629;-60
2022/03/07 03:28:25;;;;;;;24.47;12.70;;;;;;;-3.22;71.15;99064.72;5103207;28;20197;-60
2022/03/07 03:30:52;;;;;;;19.43;11.53;;;;;;;-3.25;71.78;99068.22;5104169;28;20200;-60
2022/03/07 03:33:21;;;;;;;21.47;12.33;;;;;;;-3.31;72.18;99068.44;5111047;28;20196;-60
2022/03/07 03:35:48;;;;;;;22.93;13.03;;;;;;;-3.35;72.55;99066.88;5113524;28;20268;-60
2022/03/07 03:38:15;;;;;;;20.40;12.03;;;;;;;-3.35;72.33;99069.41;5113688;28;20186;-60
2022/03/07 03:40:41;;;;;;;18.73;11.73;;;;;;;-3.20;71.26;99070.59;5113726;28;20205;-60
2022/03/07 03:43:08;;;;;;;24.00;13.30;;;;;;;-3.26;71.80;99069.94;5113452;28;20263;-60
2022/03/07 03:45:35;;;;;;;20.40;12.73;;;;;;;-3.32;72.09;99070.13;5113376;28;20241;-60
2022/03/07 03:48:02;;;;;;;18.93;11.40;;;;;;;-3.36;72.57;99068.56;5113473;28;20187;-60
2022/03/07 03:50:30;;;;;;;23.20;12.97;;;;;;;-3.43;72.53;99070.50;5113570;28;20225;-59
2022/03/07 03:52:57;;;;;;;21.67;13.00;;;;;;;-3.54;72.69;99076.84;5113250;28;20177;-60
2022/03/07 03:55:24;;;;;;;20.30;11.77;;;;;;;-3.52;73.12;99073.38;5113053;28;20424;-59
2022/03/07 03:57:51;;;;;;;22.23;12.20;;;;;;;-3.56;73.23;99080.28;5113368;28;20194;-59
2022/03/07 04:00:19;;;;;;;18.97;12.13;;;;;;;-3.63;73.16;99078.81;5112960;28;20218;-60
2022/03/07 04:02:46;;;;;;;22.57;11.67;;;;;;;-3.65;73.37;99078.03;5112892;28;20269;-59
2022/03/07 04:05:13;;;;;;;18.20;11.43;;;;;;;-3.65;73.40;99087.41;5112648;28;20185;-59
2022/03/07 04:07:42;;;;;;;22.00;12.13;;;;;;;-3.54;73.87;99085.34;5113340;28;20215;-59
2022/03/07 04:10:13;;;;;;;21.93;12.23;;;;;;;-3.56;73.44;99082.00;5113134;28;20193;-59
2022/03/07 04:12:40;;;;;;;21.07;11.17;;;;;;;-3.60;73.42;99088.09;5112746;28;20193;-60
2022/03/07 04:15:08;;;;;;;20.03;11.17;;;;;;;-3.62;73.06;99083.03;5112507;28;20181;-59
2022/03/07 04:17:38;;;;;;;22.17;11.63;;;;;;;-3.52;72.73;99086.13;5112951;28;20178;-59
2022/03/07 04:20:06;;;;;;;22.87;11.53;;;;;;;-3.48;72.95;99091.94;5112756;28;20294;-59
2022/03/07 04:22:33;;;;;;;19.30;10.83;;;;;;;-3.44;72.31;99088.41;5112709;28;20186;-59
2022/03/07 04:25:01;;;;;;;18.53;10.87;;;;;;;-3.54;72.56;99085.34;5112560;28;20190;-60
2022/03/07 04:27:28;;;;;;;21.07;11.23;;;;;;;-3.61;73.01;99089.78;5112633;28;20181;-60
2022/03/07 04:29:55;;;;;;;19.13;10.73;;;;;;;-3.67;72.69;99089.19;5112945;28;20208;-60
2022/03/07 04:32:22;;;;;;;19.70;11.93;;;;;;;-3.73;73.00;99093.59;5112720;28;20192;-60
2022/03/07 04:34:49;;;;;;;22.80;10.67;;;;;;;-3.60;72.79;99094.00;5112335;28;20188;-60
2022/03/07 04:37:16;;;;;;;19.77;11.37;;;;;;;-3.65;72.50;99089.97;5112648;28;20583;-60
2022/03/07 04:39:42;;;;;;;19.47;10.30;;;;;;;-3.63;72.02;99094.13;5112518;28;20213;-60
2022/03/07 04:42:10;;;;;;;18.90;10.63;;;;;;;-3.74;72.58;99097.03;5112057;28;20193;-59
2022/03/07 04:44:37;;;;;;;18.40;11.00;;;;;;;-3.55;71.37;99104.09;5093763;28;20603;-59
2022/03/07 04:47:04;;;;;;;17.53;11.00;;;;;;;-3.59;71.42;99107.63;5112450;28;20200;-59
2022/03/07 04:49:31;;;;;;;19.23;11.57;;;;;;;-3.53;71.33;99109.97;5112409;28;20216;-59
2022/03/07 04:51:58;;;;;;;19.07;10.93;;;;;;;-3.52;70.89;99113.34;5110190;28;20266;-60
2022/03/07 04:54:25;;;;;;;21.13;11.07;;;;;;;-3.30;68.79;99108.41;5104576;28;20253;-59
2022/03/07 04:56:52;;;;;;;16.27;9.10;;;;;;;-3.27;68.90;99105.75;5111885;28;20257;-59
2022/03/07 04:59:20;;;;;;;16.77;9.77;;;;;;;-3.20;68.22;99111.47;5111669;28;20760;-59
2022/03/07 05:01:46;;;;;;;18.07;10.47;;;;;;;-3.28;68.05;99107.44;5112096;28;20197;-59
2022/03/07 05:04:13;;;;;;;19.40;10.87;;;;;;;-3.28;68.24;99106.63;5111611;28;20604;-59
2022/03/07 05:06:40;;;;;;;17.47;10.33;;;;;;;-3.31;67.90;99114.38;5112006;28;20192;-59
2022/03/07 05:09:07;;;;;;;18.73;11.37;;;;;;;-3.30;67.03;99106.66;5111851;28;20187;-60
2022/03/07 05:11:34;;;;;;;19.60;11.57;;;;;;;-3.41;67.70;99114.69;5111941;28;20209;-59
2022/03/07 05:14:01;;;;;;;16.87;10.40;;;;;;;-3.46;68.52;99121.66;5111284;28;20181;-59
2022/03/07 05:16:29;;;;;;;17.17;10.47;;;;;;;-3.49;68.35;99121.75;5111880;28;20182;-59
2022/03/07 05:18:56;;;;;;;20.03;11.33;;;;;;;-3.53;67.85;99122.75;5111103;28;20728;-59
2022/03/07 05:21:23;;;;;;;19.10;10.83;;;;;;;-3.63;67.70;99116.25;5111667;28;20185;-59
2022/03/07 05:23:50;;;;;;;20.30;11.20;;;;;;;-3.59;67.33;99121.19;5111288;28;20205;-59
2022/03/07 05:26:17;;;;;;;20.63;11.00;;;;;;;-3.49;66.01;99126.00;5111237;28;20188;-59
2022/03/07 05:28:43;;;;;;;21.10;11.17;;;;;;;-3.50;65.91;99125.19;5111634;28;20229;-60
2022/03/07 05:31:12;;;;;;;19.57;10.87;;;;;;;-3.44;66.38;99126.69;5111416;28;20221;-59
2022/03/07 05:33:40;;;;;;;25.73;12.17;;;;;;;-3.44;65.78;99129.25;5111215;28;20285;-59
2022/03/07 05:36:08;;;;;;;20.03;9.83;;;;;;;-3.10;63.82;99123.03;5111141;28;20192;-59
2022/03/07 05:38:35;;;;;;;19.53;11.00;;;;;;;-2.93;63.23;99125.00;5111385;28;20203;-59
2022/03/07 05:41:02;;;;;;;23.30;11.73;;;;;;;-3.05;63.68;99138.19;5111304;28;20205;-59
2022/03/07 05:43:29;;;;;;;20.87;11.93;;;;;;;-3.05;63.30;99133.06;5110982;28;20178;-59
2022/03/07 05:45:55;;;;;;;22.40;11.50;;;;;;;-3.07;63.67;99135.69;5110850;28;20189;-60
2022/03/07 05:48:23;;;;;;;20.80;11.70;;;;;;;-3.11;63.00;99129.84;5111187;28;20188;-59
2022/03/07 05:50:51;;;;;;;23.73;12.10;;;;;;;-2.89;62.65;99141.88;5111052;28;20205;-59
2022/03/07 05:53:21;;;;;;;25.20;11.93;;;;;;;-2.87;62.33;99137.56;5110999;28;20239;-59
2022/03/07 05:55:48;;;;;;;22.93;11.13;;;;;;;-2.83;62.02;99140.84;5110671;28;20265;-59
2022/03/07 05:58:16;;;;;;;24.43;12.33;;;;;;;-2.85;62.60;99150.28;5111051;28;20235;-58
2022/03/07 06:00:42;;;;;;;22.57;11.47;;;;;;;-2.59;61.22;99144.25;5110782;28;20224;-59
2022/03/07 06:03:10;;;;;;;20.07;11.97;;;;;;;-2.76;62.10;99144.88;5111098;28;20201;-59
2022/03/07 06:05:37;;;;;;;23.47;12.23;;;;;;;-2.76;61.93;99146.56;5110417;28;20181;-60
2022/03/07 06:08:06;;;;;;;24.47;12.77;;;;;;;-2.68;61.38;99155.66;5110813;28;20572;-59
2022/03/07 06:10:33;;;;;;;21.87;10.90;;;;;;;-2.58;60.99;99151.03;5110824;28;20200;-59
2022/03/07 06:13:00;;;;;;;22.67;12.67;;;;;;;-2.55;60.89;99150.94;5110875;28;20189;-59
2022/03/07 06:15:27;;;;;;;22.23;11.97;;;;;;;-2.47;61.05;99154.94;5110249;28;20261;-59
2022/03/07 06:17:56;;;;;;;23.17;12.70;;;;;;;-2.49;60.83;99152.41;5110411;28;20181;-59
2022/03/07 06:20:24;;;;;;;21.87;12.30;;;;;;;-2.43;60.42;99149.66;5110480;28;20821;-59
2022/03/07 06:22:52;;;;;;;19.83;9.80;;;;;;;-2.31;60.54;99148.38;5110394;28;20190;-60
2022/03/07 06:25:20;;;;;;;21.27;12.13;;;;;;;-2.31;59.82;99150.09;5110181;28;20193;-58
2022/03/07 06:27:47;;;;;;;21.40;11.20;;;;;;;-2.17;59.49;99158.09;5110515;28;20522;-59
2022/03/07 06:30:14;;;;;;;29.73;15.47;;;;;;;-2.19;59.75;99157.31;5109657;28;20262;-59
2022/03/07 06:32:41;;;;;;;21.83;11.93;;;;;;;-2.16;59.82;99158.94;5110540;28;20217;-59
2022/03/07 06:35:08;;;;;;;20.37;12.00;;;;;;;-2.16;59.73;99162.31;5110281;28;20186;-59
2022/03/07 06:37:36;;;;;;;21.80;12.03;;;;;;;-2.06;59.55;99160.22;5110437;28;20185;-59
2022/03/07 06:40:03;;;;;;;19.77;10.70;;;;;;;-2.15;59.98;99163.16;5110427;28;20267;-59
2022/03/07 06:42:31;;;;;;;22.37;11.77;;;;;;;-2.13;59.86;99164.75;5110254;28;20226;-59
2022/03/07 06:44:58;;;;;;;22.73;12.00;;;;;;;-2.14;59.98;99157.97;5110280;28;20193;-59
2022/03/07 06:47:25;;;;;;;19.43;10.57;;;;;;;-2.09;59.41;99165.47;5110372;28;20182;-59
2022/03/07 06:49:56;;;;;;;20.03;10.40;;;;;;;-2.06;59.42;99157.69;5108105;28;20220;-59
2022/03/07 06:52:24;;;;;;;22.13;11.93;;;;;;;-2.14;60.05;99154.59;5096681;28;20568;-59
2022/03/07 06:54:51;;;;;;;19.17;10.53;;;;;;;-2.16;60.39;99158.94;5109366;28;20222;-59
2022/03/07 06:57:18;;;;;;;23.40;11.57;;;;;;;-2.17;60.56;99164.94;5110109;28;20186;-59
2022/03/07 06:59:47;;;;;;;15.73;7.47;;;;;;;-2.11;60.50;99159.56;5109937;28;20213;-59
2022/03/07 07:02:14;;;;;;;22.25;14.77;;;;;;;-2.06;60.00;99164.53;5109207;28;20415;-61
2022/03/07 07:04:40;;;;;;;24.37;14.53;;;;;;;-2.06;59.73;99169.66;5108481;28;20193;-61
2022/03/07 07:07:07;;;;;;;25.03;12.93;;;;;;;-2.10;60.33;99162.09;5110074;28;20185;-62
2022/03/07 07:09:34;;;;;;;22.57;12.33;;;;;;;-2.09;60.49;99166.31;5109973;28;20570;-62
2022/03/07 07:12:01;;;;;;;26.03;13.27;;;;;;;-2.05;60.67;99156.78;5109717;28;20204;-62
2022/03/07 07:14:28;;;;;;;27.63;15.30;;;;;;;-2.00;60.13;99165.13;5092041;28;20194;-62
2022/03/07 07:16:56;;;;;;;23.83;12.67;;;;;;;-1.93;60.03;99164.00;5089592;28;20183;-61
2022/03/07 07:19:23;;;;;;;34.13;17.63;;;;;;;-1.93;60.42;99161.44;5107059;28;20278;-61
2022/03/07 07:21:50;;;;;;;24.13;12.67;;;;;;;-1.94;60.38;99170.00;5097768;28;20190;-61
2022/03/07 07:24:17;;;;;;;35.67;20.07;;;;;;;-1.84;60.53;99167.09;5106208;28;20195;-61
2022/03/07 07:26:43;;;;;;;20.83;11.83;;;;;;;-1.84;60.08;99167.94;5108553;28;20201;-61
2022/03/07 07:29:10;;;;;;;23.50;12.53;;;;;;;-1.83;60.24;99164.50;5110362;28;20190;-61
2022/03/07 07:31:37;;;;;;;23.57;14.00;;;;;;;-1.76;60.22;99169.38;5110684;28;20190;-62
2022/03/07 07:34:05;;;;;;;22.83;12.17;;;;;;;-1.77;60.24;99168.53;5110067;28;20191;-60
2022/03/07 07:36:32;;;;;;;23.10;12.43;;;;;;;-1.75;59.94;99164.19;5110721;28;20732;-60
2022/03/07 07:38:58;;;;;;;21.57;11.33;;;;;;;-1.72;59.82;99171.75;5107459;28;20186;-61
2022/03/07 07:41:25;;;;;;;23.10;12.87;;;;;;;-1.67;60.40;99169.84;5112507;28;20201;-61
2022/03/07 07:43:52;;;;;;;21.80;12.37;;;;;;;-1.68;60.50;99180.97;5113958;28;20274;-61
2022/03/07 07:46:20;;;;;;;20.23;11.70;;;;;;;-1.64;60.14;99179.97;5114361;28;20182;-61
2022/03/07 07:48:46;;;;;;;22.30;12.90;;;;;;;-1.53;60.22;99186.41;5114508;28;20196;-61
2022/03/07 07:51:15;;;;;;;20.80;11.00;;;;;;;-1.46;60.18;99182.69;5114572;28;20717;-61
2022/03/07 07:53:41;;;;;;;20.43;11.83;;;;;;;-1.42;59.53;99199.59;5113850;28;20186;-61
2022/03/07 07:56:09;;;;;;;19.73;11.47;;;;;;;-1.32;59.29;99194.94;5113854;28;20667;-61
2022/03/07 07:58:36;;;;;;;21.00;11.20;;;;;;;-1.30;58.99;99202.56;5114194;28;20188;-61
2022/03/07 08:01:03;;;;;;;24.17;13.53;;;;;;;-1.23;59.28;99198.88;5114334;28;20668;-61
2022/03/07 08:03:30;;;;;;;19.43;11.40;;;;;;;-1.20;59.09;99202.13;5113891;28;20174;-61
2022/03/07 08:05:57;;;;;;;20.07;11.27;;;;;;;-1.10;58.54;99206.88;5113577;28;20769;-61
2022/03/07 08:08:25;;;;;;;21.37;10.67;;;;;;;-1.01;58.37;99205.66;5113902;28;20719;-62
2022/03/07 08:10:52;;;;;;;17.97;11.13;;;;;;;-0.91;57.76;99202.69;5113947;28;20201;-61
2022/03/07 08:13:19;;;;;;;21.13;11.00;;;;;;;-0.81;58.14;99205.69;5113701;28;20178;-61
2022/03/07 08:15:46;;;;;;;20.20;11.57;;;;;;;-0.78;57.49;99209.84;5113454;28;20278;-61
2022/03/07 08:18:13;;;;;;;19.20;11.33;;;;;;;-0.65;58.05;99211.00;5113934;28;20752;-61
2022/03/07 08:20:39;;;;;;;17.50;10.47;;;;;;;-0.57;57.89;99202.97;5113654;28;20205;-62
2022/03/07 08:23:06;;;;;;;23.10;11.73;;;;;;;-0.49;56.66;99195.78;5113503;28;20266;-61
2022/03/07 08:25:34;;;;;;;19.73;11.07;;;;;;;-0.42;56.59;99203.22;5098019;28;20217;-62
2022/03/07 08:28:01;;;;;;;19.07;10.57;;;;;;;-0.31;56.16;99209.53;5109438;28;20193;-62
2022/03/07 08:30:29;;;;;;;16.70;10.60;;;;;;;-0.22;56.44;99210.03;5113372;28;20210;-62
2022/03/07 08:32:56;;;;;;;18.40;10.40;;;;;;;-0.10;56.07;99212.06;5113284;28;20181;-61
2022/03/07 08:35:24;;;;;;;20.37;10.93;;;;;;;-0.01;55.49;99223.66;5112832;28;20178;-61
2022/03/07 08:37:52;;;;;;;18.43;10.57;;;;;;;0.02;55.57;99220.91;5113391;28;20210;-61
2022/03/07 08:40:20;;;;;;;20.50;12.20;;;;;;;0.10;55.10;99218.03;5113338;28;20233;-60
2022/03/07 08:42:48;;;;;;;19.13;10.77;;;;;;;0.16;54.44;99230.59;5113250;28;20198;-61
2022/03/07 08:45:15;;;;;;;21.60;11.50;;;;;;;0.25;54.11;99221.63;5112978;28;20178;-61
2022/03/07 08:47:42;;;;;;;16.80;10.77;;;;;;;0.36;53.48;99216.81;5111889;28;20196;-61
2022/03/07 08:50:11;;;;;;;20.10;12.53;;;;;;;0.33;53.99;99224.66;5113080;28;20600;-60
2022/03/07 08:52:39;;;;;;;20.63;11.43;;;;;;;0.49;52.96;99226.53;5110612;28;20622;-61
2022/03/07 08:55:08;;;;;;;18.90;11.03;;;;;;;0.52;53.12;99232.38;5111469;28;20284;-63
2022/03/07 08:57:35;;;;;;;18.43;10.97;;;;;;;0.65;53.85;99235.19;5112687;28;20182;-60
2022/03/07 09:00:04;;;;;;;30.87;15.27;;;;;;;0.74;54.02;99223.63;5101851;28;20206;-61
2022/03/07 09:02:31;;;;;;;20.20;11.73;;;;;;;0.87;51.95;99232.41;5102889;28;20579;-60
2022/03/07 09:04:58;;;;;;;20.10;13.93;;;;;;;0.89;51.91;99222.06;5100926;28;20429;-63
2022/03/07 09:07:27;;;;;;;19.47;11.60;;;;;;;0.93;51.08;99215.88;5093196;28;20197;-60
2022/03/07 09:09:54;;;;;;;20.73;11.70;;;;;;;0.93;51.30;99221.00;5102756;28;20218;-61
2022/03/07 09:12:22;;;;;;;18.73;11.63;;;;;;;0.94;50.78;99217.53;5109209;28;20267;-61
2022/03/07 09:14:49;;;;;;;22.53;12.07;;;;;;;1.09;51.55;99222.81;5086370;28;20206;-60
2022/03/07 09:17:17;;;;;;;19.47;11.60;;;;;;;1.12;50.92;99214.94;5108574;28;20191;-60
2022/03/07 09:19:44;;;;;;;16.77;11.23;;;;;;;1.16;50.18;99213.88;5106404;28;20203;-60
2022/03/07 09:22:10;;;;;;;19.00;10.30;;;;;;;1.20;50.56;99217.97;5100391;28;20207;-60
2022/03/07 09:24:37;;;;;;;18.27;10.57;;;;;;;1.36;50.12;99222.34;5103073;28;20190;-60
2022/03/07 09:27:04;;;;;;;20.60;10.70;;;;;;;1.42;49.67;99219.47;5101140;28;20182;-60
2022/03/07 09:29:31;;;;;;;18.80;10.47;;;;;;;1.32;49.48;99225.06;5102682;28;20226;-60
2022/03/07 09:31:58;;;;;;;19.90;11.70;;;;;;;1.34;49.98;99225.00;5101593;28;20192;-60
2022/03/07 09:34:26;;;;;;;19.53;11.33;;;;;;;1.45;49.23;99233.00;5100432;28;20196;-61
2022/03/07 09:36:53;;;;;;;18.60;11.00;;;;;;;1.53;49.45;99230.03;5101055;28;20206;-60
2022/03/07 09:39:20;;;;;;;21.33;11.10;;;;;;;1.57;48.88;99234.13;5101394;28;20203;-61
2022/03/07 09:41:47;;;;;;;13.57;7.77;;;;;;;1.50;48.21;99232.78;5102418;28;20202;-61
2022/03/07 09:44:13;;;;;;;20.93;10.90;;;;;;;1.65;48.27;99227.75;5100190;28;20373;-61
2022/03/07 09:46:40;;;;;;;14.47;7.87;;;;;;;1.53;47.70;99231.78;5101274;28;20210;-60
2022/03/07 09:49:07;;;;;;;17.23;9.60;;;;;;;1.46;48.53;99229.53;5102396;28;20185;-60
2022/03/07 09:51:35;;;;;;;19.80;11.20;;;;;;;1.54;48.06;99234.28;5106520;28;20178;-60
2022/03/07 09:54:02;;;;;;;20.17;12.33;;;;;;;1.38;48.83;99223.09;5111463;28;20209;-60
2022/03/07 09:56:29;;;;;;;20.57;12.20;;;;;;;1.28;48.65;99231.28;5111286;28;20550;-60
2022/03/07 09:58:55;;;;;;;19.97;11.90;;;;;;;1.24;49.35;99223.81;5111529;28;20560;-61
2022/03/07 10:01:22;;;;;;;18.03;10.53;;;;;;;1.39;49.19;99229.91;5111632;28;20218;-59
2022/03/07 10:03:49;;;;;;;28.47;20.13;;;;;;;1.46;48.89;99228.69;5108276;28;20628;-59
2022/03/07 10:06:18;;;;;;;20.80;12.67;;;;;;;1.50;48.55;99226.81;5106916;28;20189;-60
2022/03/07 10:08:58;;;;;;;27.80;16.37;;;;;;;1.74;48.36;99222.13;5111544;28;20204;-61
2022/03/07 10:11:26;;;;;;;25.10;14.80;;;;;;;2.04;47.70;99227.41;5111874;28;20267;-61
2022/03/07 10:13:54;;;;;;;21.53;13.27;;;;;;;2.25;46.60;99231.47;5111158;28;20193;-61
2022/03/07 10:16:21;;;;;;;19.37;11.53;;;;;;;2.37;45.81;99238.53;5111369;28;20812;-62
2022/03/07 10:18:50;;;;;;;19.90;11.67;;;;;;;2.27;45.36;99227.06;5111419;28;20185;-62
2022/03/07 10:21:23;;;;;;;23.20;12.73;;;;;;;2.39;45.76;99230.75;5111345;28;20260;-62
2022/03/07 10:23:55;;;;;;;16.10;10.93;;;;;;;2.58;46.15;99230.56;5111139;28;20177;-62
2022/03/07 10:26:23;;;;;;;19.63;11.77;;;;;;;2.82;45.29;99235.25;5090748;28;20583;-62
2022/03/07 10:28:54;;;;;;;18.63;11.00;;;;;;;2.90;44.20;99235.66;5091097;28;20269;-62
2022/03/07 10:31:21;;;;;;;18.43;10.87;;;;;;;2.75;44.00;99227.03;5090973;28;20182;-62
2022/03/07 10:34:00;;;;;;;18.17;11.33;;;;;;;2.65;44.08;99237.03;5090935;28;20813;-61
2022/03/07 10:36:31;;;;;;;20.30;11.77;;;;;;;2.90;44.56;99233.91;5090806;28;20183;-62
2022/03/07 10:38:59;;;;;;;11.07;6.17;;;;;;;2.90;43.29;99230.50;5090953;28;20646;-62
2022/03/07 10:41:36;;;;;;;20.77;12.07;;;;;;;2.97;43.50;99236.97;5090790;28;20209;-61
2022/03/07 10:44:05;;;;;;;18.73;12.23;;;;;;;3.06;43.52;99236.47;5090460;28;20188;-61
2022/03/07 10:46:31;;;;;;;19.90;11.57;;;;;;;3.08;43.25;99221.72;5090596;28;20189;-61
2022/03/07 10:48:59;;;;;;;17.83;11.53;;;;;;;3.16;43.20;99234.16;5090741;28;20182;-62
2022/03/07 10:51:26;;;;;;;21.63;13.00;;;;;;;3.06;42.90;99239.03;5102177;28;20218;-62
2022/03/07 10:53:53;;;;;;;24.20;12.33;;;;;;;3.14;43.58;99222.28;5110011;28;20258;-61
2022/03/07 10:56:23;;;;;;;20.53;12.53;;;;;;;3.22;42.48;99227.81;5110682;28;20194;-62
2022/03/07 10:58:53;;;;;;;21.20;13.20;;;;;;;3.07;43.04;99221.78;5111127;28;20269;-62
2022/03/07 11:01:30;;;;;;;19.03;12.50;;;;;;;3.13;42.58;99228.38;5110881;28;20219;-62
2022/03/07 11:03:57;;;;;;;17.93;11.37;;;;;;;3.16;42.93;99226.44;5110595;28;20539;-62
2022/03/07 11:06:25;;;;;;;18.80;12.33;;;;;;;3.22;42.36;99214.91;5110988;28;20180;-62
2022/03/07 11:08:52;;;;;;;18.83;11.70;;;;;;;3.01;43.58;99211.81;5110934;28;20184;-61
2022/03/07 11:11:22;;;;;;;10.20;6.53;;;;;;;3.12;43.85;99208.66;5111159;28;20182;-61
2022/03/07 11:13:53;;;;;;;17.67;11.83;;;;;;;2.98;42.90;99215.44;5110440;28;20188;-61
2022/03/07 11:16:22;;;;;;;18.73;12.20;;;;;;;3.15;43.45;99205.91;5113272;28;20236;-61
2022/03/07 11:18:53;;;;;;;16.90;11.07;;;;;;;3.17;43.71;99202.28;5114959;28;20287;-61
2022/03/07 11:21:22;;;;;;;22.63;13.00;;;;;;;3.09;41.83;99199.31;5114938;28;20197;-63